createdAt,value
2017-09-26T00:01:47.153Z,10.73
2017-09-26T00:02:47.193Z,10.66
2017-09-26T00:04:40.607Z,10.66
2017-09-26T00:05:40.566Z,10.74
2017-09-26T00:07:34.008Z,10.77
2017-09-26T00:08:33.998Z,10.80
2017-09-26T00:10:27.399Z,10.80
2017-09-26T00:11:27.428Z,10.70
2017-09-26T00:13:20.779Z,10.73
2017-09-26T00:14:20.826Z,10.73
2017-09-26T00:16:14.200Z,10.78
2017-09-26T00:17:14.205Z,10.76
2017-09-26T00:19:07.604Z,10.70
2017-09-26T00:20:07.590Z,10.73
2017-09-26T00:22:01.031Z,10.62
2017-09-26T00:23:00.983Z,10.68
2017-09-26T00:24:54.384Z,10.70
2017-09-26T00:25:54.424Z,10.71
2017-09-26T00:27:47.830Z,10.70
2017-09-26T00:28:47.828Z,10.66
2017-09-26T00:30:41.249Z,10.73
2017-09-26T00:31:41.244Z,10.76
2017-09-26T00:33:34.678Z,10.78
2017-09-26T00:34:34.664Z,10.76
2017-09-26T00:36:27.996Z,10.71
2017-09-26T00:37:28.029Z,10.65
2017-09-26T00:39:21.429Z,10.70
2017-09-26T00:40:21.462Z,10.65
2017-09-26T00:42:15.846Z,10.58
2017-09-26T00:43:15.820Z,10.62
2017-09-26T00:45:09.276Z,10.63
2017-09-26T00:46:09.259Z,10.55
2017-09-26T00:48:02.705Z,10.39
2017-09-26T00:49:02.662Z,10.44
2017-09-26T00:50:56.135Z,10.51
2017-09-26T00:51:56.060Z,10.46
2017-09-26T00:53:49.497Z,10.51
2017-09-26T00:54:49.478Z,10.56
2017-09-26T00:56:42.864Z,10.51
2017-09-26T00:57:42.848Z,10.51
2017-09-26T00:59:36.286Z,10.58
2017-09-26T01:00:36.251Z,10.62
2017-09-26T01:02:29.706Z,10.56
2017-09-26T01:03:29.681Z,10.53
2017-09-26T01:05:23.073Z,10.47
2017-09-26T01:06:23.060Z,10.42
2017-09-26T01:08:16.461Z,10.40
2017-09-26T01:09:16.450Z,10.30
2017-09-26T01:11:09.897Z,10.36
2017-09-26T01:12:09.890Z,10.33
2017-09-26T01:14:03.276Z,10.33
2017-09-26T01:15:03.312Z,10.34
2017-09-26T01:16:56.702Z,10.36
2017-09-26T01:17:56.681Z,10.37
2017-09-26T02:27:23.107Z,10.33
2017-09-26T02:28:23.125Z,10.30
2017-09-26T02:30:16.497Z,10.18
2017-09-26T02:31:16.517Z,10.21
2017-09-26T02:33:09.902Z,10.24
2017-09-26T02:34:09.936Z,10.22
2017-09-26T02:36:03.298Z,10.03
2017-09-26T02:37:03.298Z,10.06
2017-09-26T02:38:56.692Z,10.12
2017-09-26T02:39:56.734Z,10.19
2017-09-26T02:41:50.146Z,10.17
2017-09-26T02:42:50.098Z,10.21
2017-09-26T02:44:43.528Z,10.19
2017-09-26T02:45:43.522Z,10.18
2017-09-26T02:47:36.926Z,10.26
2017-09-26T02:48:36.919Z,10.24
2017-09-26T02:50:30.314Z,10.22
2017-09-26T02:51:30.328Z,10.15
2017-09-26T02:53:23.736Z,10.28
2017-09-26T02:54:23.760Z,10.24
2017-09-26T02:56:17.095Z,10.33
2017-09-26T02:57:17.117Z,10.24
2017-09-26T02:59:10.563Z,10.24
2017-09-26T03:00:10.522Z,10.21
2017-09-26T03:02:03.917Z,10.26
2017-09-26T03:03:03.922Z,10.22
2017-09-26T03:04:57.384Z,10.12
2017-09-26T03:05:57.328Z,10.17
2017-09-26T03:07:50.728Z,10.19
2017-09-26T03:08:50.760Z,10.15
2017-09-26T03:10:44.177Z,10.19
2017-09-26T03:11:44.173Z,10.19
2017-09-26T03:13:37.519Z,10.21
2017-09-26T03:14:37.522Z,10.18
2017-09-26T03:16:30.994Z,10.25
2017-09-26T03:17:30.919Z,10.25
2017-09-26T03:19:24.335Z,10.24
2017-09-26T03:20:24.335Z,10.36
2017-09-26T03:22:17.762Z,10.39
2017-09-26T03:23:17.722Z,10.37
2017-09-26T03:25:11.103Z,10.42
2017-09-26T03:26:11.114Z,10.43
2017-09-26T03:28:04.527Z,10.40
2017-09-26T03:29:04.558Z,10.34
2017-09-26T03:30:57.935Z,10.36
2017-09-26T03:31:57.904Z,10.26
2017-09-26T03:33:51.371Z,10.36
2017-09-26T03:34:51.354Z,10.34
2017-09-26T03:36:44.774Z,10.43
2017-09-26T03:37:44.758Z,10.43
2017-09-26T03:39:38.208Z,10.34
2017-09-26T03:40:38.177Z,10.37
2017-09-26T03:42:31.544Z,10.39
2017-09-26T03:43:31.564Z,10.36
2017-09-26T03:45:24.958Z,10.43
2017-09-26T03:46:24.934Z,10.36
2017-09-26T03:48:18.334Z,10.39
2017-09-26T03:49:18.334Z,10.36
2017-09-26T03:51:11.794Z,10.36
2017-09-26T03:52:11.764Z,10.36
2017-09-26T03:54:05.140Z,10.44
2017-09-26T03:55:05.146Z,10.36
2017-09-26T03:56:58.553Z,10.39
2017-09-26T03:57:58.587Z,10.36
2017-09-26T03:59:52.070Z,10.36
2017-09-26T04:00:51.991Z,10.39
2017-09-26T04:02:45.427Z,10.44
2017-09-26T04:03:45.428Z,10.36
2017-09-26T04:05:38.804Z,10.47
2017-09-26T04:06:38.834Z,10.42
2017-09-26T04:08:33.196Z,10.37
2017-09-26T04:09:33.223Z,10.37
2017-09-26T04:11:26.687Z,10.46
2017-09-26T04:12:26.607Z,10.37
2017-09-26T04:14:20.049Z,10.51
2017-09-26T04:15:20.072Z,10.52
2017-09-26T04:17:13.402Z,10.53
2017-09-26T04:18:13.496Z,10.51
2017-09-26T04:20:07.953Z,10.39
2017-09-26T04:21:07.881Z,10.34
2017-09-26T04:23:01.351Z,10.37
2017-09-26T04:24:01.294Z,10.26
2017-09-26T04:25:55.698Z,10.42
2017-09-26T04:26:55.685Z,10.39
2017-09-26T04:28:58.951Z,10.52
2017-09-26T04:29:49.237Z,10.34
2017-09-26T04:31:52.442Z,10.24
2017-09-26T04:32:43.928Z,10.30
2017-09-26T04:34:38.174Z,10.33
2017-09-26T04:35:38.028Z,10.28
2017-09-26T04:37:39.343Z,10.30
2017-09-26T04:38:31.501Z,10.34
2017-09-26T04:40:25.960Z,10.44
2017-09-26T04:41:25.934Z,10.39
2017-09-26T04:43:20.588Z,10.36
2017-09-26T04:44:20.252Z,10.26
2017-09-26T04:46:22.096Z,10.33
2017-09-26T04:48:55.932Z,10.28
2017-09-26T04:49:55.942Z,10.18
2017-09-26T04:51:58.187Z,10.19
2017-09-26T04:52:57.181Z,10.15
2017-09-26T04:54:53.442Z,10.15
2017-09-26T04:55:43.894Z,10.18
2017-09-26T04:57:45.979Z,10.19
2017-09-26T04:58:38.257Z,10.19
2017-09-26T05:00:42.489Z,10.24
2017-09-26T05:01:43.321Z,10.30
2017-09-26T05:03:35.903Z,10.19
2017-09-26T05:04:35.816Z,10.14
2017-09-26T05:06:29.219Z,10.06
2017-09-26T05:07:29.217Z,10.14
2017-09-26T05:09:25.718Z,10.12
2017-09-26T05:10:15.943Z,10.04
2017-09-26T05:12:11.379Z,10.01
2017-09-26T05:13:18.692Z,10.01
2017-09-26T05:15:14.662Z,9.94
2017-09-26T05:16:15.632Z,9.93
2017-09-26T05:18:00.235Z,10.00
2017-09-26T05:19:00.191Z,10.07
2017-09-26T05:21:04.713Z,10.09
2017-09-26T05:21:55.694Z,10.09
2017-09-26T05:23:59.775Z,10.06
2017-09-26T05:24:59.744Z,10.04
2017-09-26T05:26:53.382Z,10.00
2017-09-26T05:27:54.176Z,9.89
2017-09-26T05:29:45.692Z,10.12
2017-09-26T05:30:38.143Z,10.00
2017-09-26T05:32:42.104Z,10.14
2017-09-26T05:33:32.316Z,10.09
2017-09-26T05:35:34.044Z,10.03
2017-09-26T05:36:34.184Z,10.09
2017-09-26T05:38:27.636Z,10.17
2017-09-26T05:39:18.929Z,10.24
2017-09-26T05:41:22.276Z,10.22
2017-09-26T05:42:23.129Z,10.30
2017-09-26T05:44:18.404Z,10.26
2017-09-26T05:45:18.308Z,10.22
2017-09-26T05:47:12.755Z,10.15
2017-09-26T05:48:13.910Z,10.14
2017-09-26T05:50:06.012Z,10.24
2017-09-26T05:50:58.583Z,10.33
2017-09-26T05:53:02.744Z,10.34
2017-09-26T05:53:52.886Z,10.33
2017-09-26T05:55:55.076Z,10.39
2017-09-26T05:56:47.453Z,10.40
2017-09-26T05:58:49.532Z,10.40
2017-09-26T05:59:50.469Z,10.43
2017-09-26T06:01:35.204Z,10.30
2017-09-26T06:02:44.127Z,10.36
2017-09-26T06:04:28.837Z,10.32
2017-09-26T06:05:37.407Z,10.36
2017-09-26T06:07:31.907Z,10.36
2017-09-26T06:08:31.959Z,10.40
2017-09-26T06:10:27.284Z,10.34
2017-09-26T06:11:18.559Z,10.37
2017-09-26T06:13:13.131Z,10.39
2017-09-26T06:14:13.046Z,10.46
2017-09-26T06:16:16.107Z,10.36
2017-09-26T06:17:08.478Z,10.52
2017-09-26T06:19:03.861Z,10.46
2017-09-26T06:20:03.665Z,10.40
2017-09-26T06:22:04.448Z,10.34
2017-09-26T06:22:57.016Z,10.39
2017-09-26T06:24:59.976Z,10.46
2017-09-26T06:25:52.271Z,10.53
2017-09-26T06:27:55.498Z,10.60
2017-09-26T06:28:46.512Z,10.74
2017-09-26T06:30:47.830Z,10.74
2017-09-26T06:31:47.832Z,10.77
2017-09-26T06:33:41.355Z,10.83
2017-09-26T06:34:33.682Z,10.78
2017-09-26T06:36:34.799Z,10.86
2017-09-26T06:37:27.145Z,10.95
2017-09-26T06:39:20.630Z,10.96
2017-09-26T06:40:30.321Z,11.03
2017-09-26T06:42:24.637Z,11.10
2017-09-26T06:43:24.569Z,11.07
2017-09-26T06:45:19.010Z,11.14
2017-09-26T06:46:10.239Z,11.20
2017-09-26T06:48:11.385Z,11.13
2017-09-26T06:49:03.766Z,11.27
2017-09-26T06:51:06.791Z,11.24
2017-09-26T06:51:59.045Z,11.19
2017-09-26T06:54:02.386Z,11.19
2017-09-26T06:55:00.342Z,11.17
2017-09-26T06:56:56.573Z,11.34
2017-09-26T06:57:55.700Z,11.34
2017-09-26T06:59:48.130Z,11.47
2017-09-26T07:00:40.241Z,11.50
2017-09-26T07:02:33.843Z,11.53
2017-09-26T07:03:33.774Z,11.62
2017-09-26T07:05:27.126Z,11.53
2017-09-26T07:06:27.172Z,11.71
2017-09-26T07:08:21.842Z,11.68
2017-09-26T07:09:21.554Z,11.72
2017-09-26T07:11:15.854Z,11.78
2017-09-26T07:12:15.092Z,11.75
2017-09-26T07:14:09.544Z,11.82
2017-09-26T07:15:09.450Z,11.86
2017-09-26T07:17:03.994Z,11.97
2017-09-26T07:18:03.971Z,12.08
2017-09-26T07:19:58.355Z,12.13
2017-09-26T07:21:06.958Z,11.99
2017-09-26T07:23:00.455Z,12.11
2017-09-26T07:24:00.540Z,12.09
2017-09-26T07:25:54.880Z,12.20
2017-09-26T07:26:53.943Z,12.23
2017-09-26T07:28:48.483Z,12.37
2017-09-26T07:29:48.263Z,12.30
2017-09-26T07:31:44.723Z,12.38
2017-09-26T07:32:42.397Z,12.37
2017-09-26T07:34:37.103Z,12.44
2017-09-26T07:35:28.368Z,12.48
2017-09-26T07:37:21.971Z,12.48
2017-09-26T07:38:30.510Z,12.62
2017-09-26T07:40:25.008Z,12.77
2017-09-26T07:41:25.095Z,12.75
2017-09-26T07:43:10.662Z,12.71
2017-09-26T07:44:10.802Z,12.70
2017-09-26T07:46:12.877Z,12.84
2017-09-26T07:47:12.769Z,12.84
2017-09-26T07:49:07.256Z,12.88
2017-09-26T07:49:58.580Z,12.89
2017-09-26T07:51:54.068Z,13.00
2017-09-26T07:53:01.722Z,13.09
2017-09-26T07:54:48.374Z,13.07
2017-09-26T07:55:48.333Z,13.20
2017-09-26T07:57:42.720Z,13.22
2017-09-26T07:58:42.751Z,13.30
2017-09-26T08:00:36.362Z,13.38
2017-09-26T08:01:36.253Z,13.36
2017-09-26T08:03:31.620Z,13.37
2017-09-26T08:04:31.696Z,13.40
2017-09-26T08:06:33.710Z,13.46
2017-09-26T08:07:25.982Z,13.51
2017-09-26T08:09:19.476Z,13.51
2017-09-26T08:10:19.513Z,13.59
2017-09-26T08:12:13.899Z,13.63
2017-09-26T08:13:13.923Z,13.74
2017-09-26T08:15:07.233Z,13.76
2017-09-26T08:16:07.186Z,13.80
2017-09-26T08:18:01.718Z,13.79
2017-09-26T08:19:01.777Z,13.81
2017-09-26T08:20:55.176Z,13.83
2017-09-26T08:21:55.097Z,13.77
2017-09-26T08:23:48.552Z,13.77
2017-09-26T08:24:48.554Z,13.83
2017-09-26T08:26:43.929Z,13.81
2017-09-26T08:27:43.946Z,13.96
2017-09-26T08:29:46.889Z,13.92
2017-09-26T08:30:38.344Z,13.89
2017-09-26T08:32:31.835Z,14.06
2017-09-26T08:33:39.414Z,14.06
2017-09-26T08:35:25.098Z,14.14
2017-09-26T08:36:25.147Z,14.17
2017-09-26T08:38:18.641Z,14.21
2017-09-26T08:39:18.667Z,14.31
2017-09-26T08:41:11.969Z,14.27
2017-09-26T08:42:20.655Z,14.37
2017-09-26T08:44:05.478Z,14.52
2017-09-26T08:45:05.446Z,14.54
2017-09-26T08:46:58.868Z,14.64
2017-09-26T08:48:07.393Z,14.72
2017-09-26T08:50:01.944Z,14.71
2017-09-26T08:51:01.860Z,14.61
2017-09-26T08:52:54.266Z,14.67
2017-09-26T08:53:46.705Z,14.80
2017-09-26T08:55:40.086Z,14.75
2017-09-26T08:56:39.997Z,14.80
2017-09-26T08:58:33.435Z,14.74
2017-09-26T08:59:41.147Z,14.74
2017-09-26T09:01:26.804Z,14.86
2017-09-26T09:02:26.797Z,14.93
2017-09-26T09:04:20.199Z,14.91
2017-09-26T09:05:20.244Z,15.03
2017-09-26T09:07:13.671Z,15.17
2017-09-26T09:08:13.650Z,15.19
2017-09-26T09:10:09.068Z,15.28
2017-09-26T09:11:09.015Z,15.38
2017-09-26T09:13:03.464Z,15.26
2017-09-26T09:14:03.408Z,15.26
2017-09-26T09:15:57.873Z,15.42
2017-09-26T09:16:57.902Z,15.41
2017-09-26T09:18:51.300Z,15.35
2017-09-26T09:19:51.251Z,15.42
2017-09-26T09:21:45.705Z,15.33
2017-09-26T09:22:45.634Z,15.38
2017-09-26T09:24:40.059Z,15.51
2017-09-26T09:25:40.040Z,15.48
2017-09-26T09:27:33.543Z,15.59
2017-09-26T09:28:33.553Z,15.67
2017-09-26T09:30:27.905Z,15.63
2017-09-26T09:31:28.014Z,15.63
2017-09-26T09:33:21.349Z,15.75
2017-09-26T09:34:21.291Z,15.85
2017-09-26T09:36:14.733Z,15.94
2017-09-26T09:37:14.728Z,15.94
2017-09-26T09:39:09.169Z,15.88
2017-09-26T09:40:09.160Z,15.75
2017-09-26T09:42:02.593Z,15.84
2017-09-26T09:43:02.519Z,16.00
2017-09-26T09:44:55.915Z,16.20
2017-09-26T09:45:55.937Z,16.30
2017-09-26T09:47:50.370Z,16.41
2017-09-26T09:48:50.380Z,16.49
2017-09-26T09:50:43.809Z,16.50
2017-09-26T09:51:43.848Z,16.62
2017-09-26T09:53:37.448Z,16.80
2017-09-26T09:54:37.193Z,16.78
2017-09-26T09:56:31.547Z,16.86
2017-09-26T09:57:31.601Z,16.95
2017-09-26T09:59:26.184Z,17.06
2017-09-26T10:00:26.049Z,17.18
2017-09-26T10:02:20.477Z,17.11
2017-09-26T10:03:20.527Z,17.29
2017-09-26T10:05:13.984Z,17.59
2017-09-26T10:06:13.910Z,18.00
2017-09-26T10:08:07.284Z,19.50
2017-09-26T10:09:07.302Z,20.21
2017-09-26T10:11:00.738Z,21.53
2017-09-26T10:12:00.804Z,22.14
2017-09-26T10:14:02.818Z,22.27
2017-09-26T10:14:54.169Z,22.68
2017-09-26T10:16:57.232Z,22.71
2017-09-26T10:17:48.547Z,22.78
2017-09-26T10:19:41.997Z,23.87
2017-09-26T10:20:41.997Z,24.38
2017-09-26T10:22:35.429Z,24.90
2017-09-26T10:23:43.096Z,25.16
2017-09-26T10:25:28.878Z,25.57
2017-09-26T10:26:28.826Z,25.57
2017-09-26T10:28:22.382Z,25.93
2017-09-26T10:29:22.351Z,26.28
2017-09-26T10:31:15.771Z,26.28
2017-09-26T10:32:15.742Z,26.09
2017-09-26T10:34:09.229Z,26.50
2017-09-26T10:35:09.168Z,26.65
2017-09-26T10:37:02.682Z,27.39
2017-09-26T10:38:02.554Z,27.46
2017-09-26T10:39:55.970Z,27.31
2017-09-26T10:40:55.971Z,27.64
2017-09-26T10:42:50.469Z,27.41
2017-09-26T10:43:50.420Z,27.66
2017-09-26T10:45:43.845Z,28.09
2017-09-26T10:46:43.808Z,28.11
2017-09-26T10:48:37.356Z,28.32
2017-09-26T10:49:37.274Z,28.46
2017-09-26T10:51:31.709Z,28.35
2017-09-26T10:52:31.683Z,27.94
2017-09-26T10:54:25.125Z,25.77
2017-09-26T10:55:25.164Z,24.91
2017-09-26T10:57:18.610Z,25.57
2017-09-26T10:58:18.621Z,26.08
2017-09-26T11:00:12.028Z,26.40
2017-09-26T11:01:12.042Z,25.77
2017-09-26T11:03:06.605Z,25.77
2017-09-26T11:04:06.470Z,25.42
2017-09-26T11:05:59.940Z,25.35
2017-09-26T11:06:59.920Z,24.98
2017-09-26T11:08:53.420Z,25.07
2017-09-26T11:09:53.353Z,24.83
2017-09-26T11:11:46.792Z,24.73
2017-09-26T11:12:46.784Z,24.73
2017-09-26T11:14:40.238Z,24.59
2017-09-26T11:15:40.260Z,24.49
2017-09-26T11:17:33.711Z,24.08
2017-09-26T11:18:33.682Z,24.07
2017-09-26T11:20:27.167Z,24.07
2017-09-26T11:21:27.124Z,24.17
2017-09-26T11:23:20.547Z,23.70
2017-09-26T11:24:20.588Z,23.50
2017-09-26T11:26:15.030Z,23.27
2017-09-26T11:27:15.000Z,22.99
2017-09-26T11:29:08.409Z,22.89
2017-09-26T11:30:08.494Z,22.77
2017-09-26T11:32:02.890Z,22.65
2017-09-26T11:33:02.894Z,22.68
2017-09-26T11:34:56.332Z,22.52
2017-09-26T11:35:56.288Z,22.37
2017-09-26T11:37:50.812Z,22.64
2017-09-26T11:38:50.739Z,22.68
2017-09-26T11:40:45.140Z,22.39
2017-09-26T11:41:45.200Z,22.46
2017-09-26T11:43:39.615Z,22.68
2017-09-26T11:44:39.613Z,22.80
2017-09-26T11:46:33.102Z,22.72
2017-09-26T11:47:33.014Z,22.52
2017-09-26T11:49:26.438Z,22.23
2017-09-26T11:50:26.483Z,22.32
2017-09-26T11:52:19.926Z,22.14
2017-09-26T11:53:19.883Z,21.98
2017-09-26T11:55:13.362Z,21.75
2017-09-26T11:56:13.335Z,21.82
2017-09-26T11:58:06.805Z,21.63
2017-09-26T11:59:06.831Z,21.81
2017-09-26T12:01:01.181Z,21.92
2017-09-26T12:02:01.171Z,21.88
2017-09-26T12:03:56.906Z,21.39
2017-09-26T12:05:04.740Z,21.20
2017-09-26T12:07:02.768Z,20.99
2017-09-26T12:08:00.455Z,20.77
2017-09-26T12:09:48.394Z,20.65
2017-09-26T12:10:54.395Z,20.74
2017-09-26T12:12:47.995Z,22.07
2017-09-26T12:13:47.780Z,22.54
2017-09-26T12:15:45.694Z,21.75
2017-09-26T12:16:49.117Z,21.41
2017-09-26T12:18:41.770Z,22.13
2017-09-26T12:19:42.357Z,22.54
2017-09-26T12:21:35.607Z,22.72
2017-09-26T12:22:34.485Z,22.68
2017-09-26T12:24:19.398Z,22.34
2017-09-26T12:25:29.930Z,22.20
2017-09-26T12:27:14.792Z,22.27
2017-09-26T12:28:25.077Z,22.09
2017-09-26T12:30:16.164Z,22.12
2017-09-26T12:31:16.473Z,22.25
2017-09-26T12:33:12.203Z,22.29
2017-09-26T12:34:12.819Z,22.19
2017-09-26T12:36:07.756Z,22.78
2017-09-26T12:37:07.315Z,22.94
2017-09-26T12:38:51.265Z,23.20
2017-09-26T12:39:59.510Z,23.05
2017-09-26T12:41:44.471Z,22.93
2017-09-26T12:42:44.345Z,23.02
2017-09-26T12:44:37.760Z,23.20
2017-09-26T12:45:37.761Z,23.14
2017-09-26T12:47:31.196Z,23.12
2017-09-26T12:48:31.184Z,23.04
2017-09-26T12:50:24.602Z,23.23
2017-09-26T12:51:24.622Z,23.50
2017-09-26T12:53:18.117Z,23.50
2017-09-26T12:54:18.042Z,23.29
2017-09-26T12:56:11.440Z,23.39
2017-09-26T12:57:11.443Z,23.17
2017-09-26T12:59:04.888Z,22.92
2017-09-26T13:00:04.903Z,22.77
2017-09-26T13:01:58.285Z,22.39
2017-09-26T13:02:58.297Z,22.23
2017-09-26T13:04:51.766Z,21.83
2017-09-26T13:05:51.733Z,21.74
2017-09-26T13:07:45.183Z,21.82
2017-09-26T13:08:45.170Z,21.75
2017-09-26T13:10:38.582Z,21.76
2017-09-26T13:11:38.596Z,21.78
2017-09-26T13:13:32.035Z,21.90
2017-09-26T13:14:32.005Z,21.92
2017-09-26T13:16:25.425Z,21.97
2017-09-26T13:17:25.435Z,21.90
2017-09-26T13:19:18.865Z,21.69
2017-09-26T13:20:18.861Z,21.81
2017-09-26T13:22:12.278Z,21.78
2017-09-26T13:23:12.299Z,21.64
2017-09-26T13:25:05.706Z,21.78
2017-09-26T13:26:05.694Z,21.75
2017-09-26T13:27:59.124Z,21.71
2017-09-26T13:28:59.124Z,21.71
2017-09-26T13:30:52.554Z,21.67
2017-09-26T13:31:52.542Z,21.50
2017-09-26T13:33:45.955Z,21.50
2017-09-26T13:34:45.969Z,21.48
2017-09-26T13:36:39.401Z,21.45
2017-09-26T13:37:39.384Z,21.24
2017-09-26T13:39:32.806Z,21.01
2017-09-26T13:40:32.808Z,20.91
2017-09-26T13:42:26.218Z,20.72
2017-09-26T13:43:26.212Z,20.64
2017-09-26T13:45:19.659Z,20.62
2017-09-26T13:46:19.639Z,20.56
2017-09-26T13:48:13.031Z,20.49
2017-09-26T13:49:13.044Z,20.38
2017-09-26T13:51:07.489Z,20.47
2017-09-26T13:52:07.483Z,20.46
2017-09-26T13:54:00.869Z,20.53
2017-09-26T13:55:00.882Z,20.76
2017-09-26T13:56:54.304Z,21.09
2017-09-26T13:57:54.315Z,20.99
2017-09-26T13:59:47.694Z,20.87
2017-09-26T14:00:47.712Z,20.95
2017-09-26T14:02:41.154Z,20.74
2017-09-26T14:03:41.163Z,20.95
2017-09-26T14:05:34.557Z,21.39
2017-09-26T14:06:34.561Z,21.64
2017-09-26T14:08:27.977Z,22.16
2017-09-26T14:09:27.968Z,22.22
2017-09-26T14:11:21.382Z,22.71
2017-09-26T14:12:21.385Z,22.86
2017-09-26T14:14:14.920Z,22.89
2017-09-26T14:15:14.829Z,22.90
2017-09-26T14:17:08.234Z,23.53
2017-09-26T14:18:08.241Z,23.67
2017-09-26T14:20:01.696Z,23.89
2017-09-26T14:21:01.724Z,23.67
2017-09-26T14:22:55.089Z,23.45
2017-09-26T14:23:55.115Z,23.39
2017-09-26T14:25:48.528Z,23.27
2017-09-26T14:26:48.514Z,23.20
2017-09-26T14:28:41.934Z,22.69
2017-09-26T14:29:42.167Z,22.29
2017-09-26T14:31:36.657Z,21.78
2017-09-26T14:32:44.193Z,21.71
2017-09-26T14:34:31.477Z,21.23
2017-09-26T14:35:39.899Z,21.13
2017-09-26T14:37:36.128Z,20.91
2017-09-26T14:38:34.027Z,20.77
2017-09-26T14:40:28.620Z,20.72
2017-09-26T14:41:29.772Z,20.64
2017-09-26T14:43:24.962Z,20.42
2017-09-26T14:44:24.778Z,20.20
2017-09-26T14:46:18.365Z,20.20
2017-09-26T14:47:09.571Z,20.15
2017-09-26T14:49:11.875Z,19.98
2017-09-26T14:50:10.902Z,19.87
2017-09-26T14:52:07.725Z,19.72
2017-09-26T14:53:05.919Z,19.55
2017-09-26T14:55:02.395Z,19.60
2017-09-26T14:56:05.866Z,19.63
2017-09-26T14:57:48.705Z,19.66
2017-09-26T15:00:22.224Z,19.58
2017-09-26T15:01:20.857Z,19.55
2017-09-26T15:03:07.175Z,19.57
2017-09-26T15:04:16.152Z,19.58
2017-09-26T15:06:10.286Z,19.69
2017-09-26T15:07:01.576Z,19.65
2017-09-26T15:08:54.920Z,19.42
2017-09-26T15:09:54.986Z,19.47
2017-09-26T15:11:48.345Z,19.28
2017-09-26T15:12:48.277Z,19.31
2017-09-26T15:14:41.440Z,19.39
2017-09-26T15:15:41.336Z,19.31
2017-09-26T15:17:34.912Z,19.43
2017-09-26T15:18:35.048Z,19.38
2017-09-26T15:20:28.372Z,19.46
2017-09-26T15:21:28.360Z,19.60
2017-09-26T15:23:21.839Z,19.55
2017-09-26T15:24:21.863Z,19.53
2017-09-26T15:26:16.717Z,19.46
2017-09-26T15:27:16.258Z,19.47
2017-09-26T15:29:10.609Z,19.57
2017-09-26T15:30:10.895Z,19.54
2017-09-26T15:32:05.143Z,19.57
2017-09-26T15:33:05.252Z,19.53
2017-09-26T15:34:58.496Z,19.43
2017-09-26T15:36:06.593Z,19.38
2017-09-26T15:37:53.025Z,19.29
2017-09-26T15:39:02.866Z,19.21
2017-09-26T15:40:47.455Z,19.10
2017-09-26T15:41:55.207Z,18.92
2017-09-26T15:43:48.151Z,18.80
2017-09-26T15:44:49.338Z,18.83
2017-09-26T15:46:43.210Z,18.68
2017-09-26T15:47:43.505Z,18.67
2017-09-26T15:49:37.176Z,18.52
2017-09-26T15:50:28.572Z,18.50
2017-09-26T15:52:22.468Z,18.39
2017-09-26T15:53:32.173Z,18.24
2017-09-26T15:55:31.182Z,18.19
2017-09-26T15:56:37.123Z,18.18
2017-09-26T15:58:33.798Z,18.09
2017-09-26T15:59:32.302Z,18.04
2017-09-26T16:01:30.306Z,17.99
2017-09-26T16:02:28.031Z,17.97
2017-09-26T16:04:19.668Z,17.97
2017-09-26T16:05:18.208Z,17.94
2017-09-26T16:07:13.901Z,17.79
2017-09-26T16:08:13.922Z,17.73
2017-09-26T16:10:09.140Z,17.78
2017-09-26T16:11:09.458Z,17.59
2017-09-26T16:13:03.589Z,17.55
2017-09-26T16:14:03.620Z,17.53
2017-09-26T16:15:58.104Z,17.47
2017-09-26T16:16:58.084Z,17.32
2017-09-26T16:18:51.518Z,17.22
2017-09-26T16:19:51.498Z,17.28
2017-09-26T16:21:46.132Z,17.26
2017-09-26T16:22:46.040Z,17.11
2017-09-26T16:24:40.330Z,17.10
2017-09-26T16:25:40.400Z,17.25
2017-09-26T16:27:34.766Z,17.10
2017-09-26T16:28:34.819Z,17.20
2017-09-26T16:30:28.306Z,17.07
2017-09-26T16:31:28.238Z,16.99
2017-09-26T16:33:21.745Z,16.88
2017-09-26T16:34:21.649Z,16.83
2017-09-26T16:36:14.632Z,16.75
2017-09-26T16:37:14.589Z,16.68
2017-09-26T16:39:08.086Z,16.60
2017-09-26T16:40:08.190Z,16.63
2017-09-26T16:42:02.472Z,16.52
2017-09-26T16:43:02.483Z,16.41
2017-09-26T16:44:56.931Z,16.37
2017-09-26T16:45:57.012Z,16.22
2017-09-26T16:47:51.370Z,16.15
2017-09-26T16:48:51.353Z,16.03
2017-09-26T16:50:44.739Z,16.00
2017-09-26T16:51:44.921Z,15.96
2017-09-26T16:53:38.290Z,15.81
2017-09-26T16:54:38.101Z,15.78
2017-09-26T16:56:32.628Z,15.75
2017-09-26T16:57:32.633Z,15.67
2017-09-26T16:59:26.123Z,15.60
2017-09-26T17:00:34.543Z,15.64
2017-09-26T17:02:20.442Z,15.54
2017-09-26T17:03:20.646Z,15.48
2017-09-26T17:05:23.635Z,15.36
2017-09-26T17:06:14.090Z,15.38
2017-09-26T17:08:08.640Z,15.42
2017-09-26T17:09:16.009Z,15.33
2017-09-26T17:11:02.707Z,15.28
2017-09-26T17:12:02.884Z,15.23
2017-09-26T17:13:57.240Z,15.20
2017-09-26T17:14:57.292Z,15.09
2017-09-26T17:16:50.697Z,15.05
2017-09-26T17:17:50.713Z,14.99
2017-09-26T17:19:44.079Z,15.06
2017-09-26T17:20:44.285Z,14.99
2017-09-26T17:22:40.954Z,14.91
2017-09-26T17:23:41.157Z,14.93
2017-09-26T17:25:36.438Z,14.84
2017-09-26T17:26:36.836Z,14.78
2017-09-26T17:28:30.013Z,14.72
2017-09-26T17:29:29.972Z,14.74
2017-09-26T17:31:24.344Z,14.75
2017-09-26T17:32:33.210Z,14.75
2017-09-26T17:34:17.841Z,14.74
2017-09-26T17:35:26.529Z,14.71
2017-09-26T17:37:21.800Z,14.80
2017-09-26T17:38:21.419Z,14.87
2017-09-26T17:40:15.277Z,14.86
2017-09-26T17:41:06.802Z,14.91
2017-09-26T17:43:02.224Z,14.88
2017-09-26T17:44:01.956Z,14.87
2017-09-26T17:45:56.541Z,14.95
2017-09-26T17:46:56.468Z,14.95
2017-09-26T17:48:49.785Z,14.86
2017-09-26T17:49:50.053Z,14.86
2017-09-26T17:51:44.430Z,15.03
2017-09-26T17:52:44.208Z,14.98
2017-09-26T17:54:39.000Z,15.08
2017-09-26T17:55:47.331Z,15.02
2017-09-26T17:57:32.299Z,15.15
2017-09-26T17:58:40.887Z,15.11
2017-09-26T18:00:26.689Z,15.26
2017-09-26T18:01:35.275Z,15.26
2017-09-26T18:03:21.303Z,15.36
2017-09-26T18:04:29.747Z,15.35
2017-09-26T18:06:14.553Z,15.48
2017-09-26T18:07:24.169Z,15.49
2017-09-26T18:09:09.018Z,15.43
2017-09-26T18:10:09.009Z,15.41
2017-09-26T18:12:03.370Z,15.48
2017-09-26T18:13:03.677Z,15.39
2017-09-26T18:14:58.979Z,15.49
2017-09-26T18:16:08.425Z,15.35
2017-09-26T18:17:54.505Z,15.33
2017-09-26T18:19:01.814Z,15.33
2017-09-26T18:20:49.996Z,15.19
2017-09-26T18:21:49.663Z,15.11
2017-09-26T18:23:44.082Z,15.03
2017-09-26T18:24:44.032Z,15.03
2017-09-26T18:26:37.450Z,14.98
2017-09-26T18:27:37.456Z,14.90
2017-09-26T18:29:31.819Z,14.74
2017-09-26T18:30:31.859Z,14.75
2017-09-26T18:32:26.258Z,14.61
2017-09-26T18:33:26.256Z,14.53
2017-09-26T18:35:21.820Z,14.52
2017-09-26T18:36:21.738Z,14.52
2017-09-26T18:38:16.129Z,14.47
2017-09-26T18:39:16.143Z,14.42
2017-09-26T18:41:09.516Z,14.42
2017-09-26T18:42:09.612Z,14.31
2017-09-26T18:44:02.987Z,14.25
2017-09-26T18:45:03.091Z,14.20
2017-09-26T18:46:56.391Z,14.24
2017-09-26T18:47:56.366Z,14.27
2017-09-26T18:49:49.780Z,14.28
2017-09-26T18:50:49.779Z,14.24
2017-09-26T18:52:44.180Z,14.16
2017-09-26T18:53:44.191Z,14.21
2017-09-26T18:55:37.646Z,14.27
2017-09-26T18:56:37.591Z,14.24
2017-09-26T18:58:31.010Z,14.31
2017-09-26T18:59:31.014Z,14.20
2017-09-26T19:01:24.439Z,14.12
2017-09-26T19:02:24.432Z,14.12
2017-09-26T19:04:17.832Z,14.01
2017-09-26T19:05:17.973Z,13.76
2017-09-26T19:07:12.344Z,13.80
2017-09-26T19:08:12.310Z,13.65
2017-09-26T19:10:06.674Z,13.71
2017-09-26T19:11:06.680Z,13.70
2017-09-26T19:13:00.131Z,13.67
2017-09-26T19:14:00.118Z,13.58
2017-09-26T19:15:53.554Z,13.61
2017-09-26T19:16:53.516Z,13.51
2017-09-26T19:18:46.977Z,13.55
2017-09-26T19:19:46.997Z,13.52
2017-09-26T19:21:41.393Z,13.44
2017-09-26T19:22:41.390Z,13.44
2017-09-26T19:24:34.821Z,13.33
2017-09-26T19:25:34.812Z,13.41
2017-09-26T19:27:28.213Z,13.44
2017-09-26T19:28:28.202Z,13.36
2017-09-26T19:30:21.637Z,13.40
2017-09-26T19:31:21.628Z,13.20
2017-09-26T19:33:17.110Z,13.21
2017-09-26T19:34:17.080Z,13.27
2017-09-26T19:36:10.455Z,13.18
2017-09-26T19:37:10.706Z,13.18
2017-09-26T19:39:04.854Z,13.15
2017-09-26T19:40:05.103Z,13.24
2017-09-26T19:41:59.504Z,13.20
2017-09-26T19:42:59.380Z,13.06
2017-09-26T19:44:54.126Z,13.20
2017-09-26T19:45:53.755Z,13.18
2017-09-26T19:47:48.161Z,13.25
2017-09-26T19:48:48.262Z,13.20
2017-09-26T19:50:43.989Z,13.33